Time;durP1;ratioP1;P1;durP2;ratioP2;P2;SDS_P1;SDS_P2;PMS_P1;PMS_P2;Temp;Humidity;BMP_temperature;BMP_pressure;BME280_temperature;BME280_humidity;BME280_pressure;Samples;Min_cycle;Max_cycle;Signal;HPM_P1;HPM_P2
2022/09/02 00:01:28;;;;;;;24.12;7.72;;;;;;;7.16;91.15;99756.80;1706424;82;21792;-68
2022/09/02 00:04:01;;;;;;;15.18;7.80;;;;;;;7.13;91.39;99756.01;1672692;82;21010;-68
2022/09/02 00:06:30;;;;;;;22.93;8.33;;;;;;;7.10;91.50;99761.23;1688106;84;21566;-68
2022/09/02 00:08:57;;;;;;;17.10;7.87;;;;;;;7.05;91.92;99762.64;1687149;84;20889;-68
2022/09/02 00:11:28;;;;;;;15.43;7.60;;;;;;;7.04;92.00;99767.28;1673197;83;21052;-68
2022/09/02 00:13:55;;;;;;;21.62;7.50;;;;;;;7.03;92.21;99769.75;1684319;84;21138;-68
2022/09/02 00:16:23;;;;;;;21.35;7.83;;;;;;;7.03;92.34;99777.12;1674555;84;21071;-68
2022/09/02 00:18:51;;;;;;;19.90;8.10;;;;;;;7.04;92.27;99774.66;1670317;84;21582;-68
2022/09/02 00:21:18;;;;;;;14.90;7.42;;;;;;;7.01;92.16;99778.78;1680200;84;21586;-68
2022/09/02 00:23:45;;;;;;;17.27;6.85;;;;;;;6.98;91.84;99773.08;1690571;84;20997;-68
2022/09/02 00:26:12;;;;;;;14.45;6.78;;;;;;;6.92;91.85;99772.34;1680351;84;21071;-68
2022/09/02 00:28:40;;;;;;;17.07;7.72;;;;;;;6.86;91.88;99777.57;1681356;84;21015;-68
2022/09/02 00:31:06;;;;;;;16.73;7.50;;;;;;;6.81;92.06;99783.07;1692197;83;21591;-69
2022/09/02 00:33:34;;;;;;;17.65;8.18;;;;;;;6.77;92.32;99787.47;1700529;81;21216;-68
2022/09/02 00:36:02;;;;;;;17.27;7.58;;;;;;;6.73;92.36;99783.12;1676275;84;20989;-68
2022/09/02 00:38:32;;;;;;;18.42;7.12;;;;;;;6.71;92.46;99785.33;1685131;84;21813;-68
2022/09/02 00:40:58;;;;;;;17.98;7.10;;;;;;;6.68;92.50;99784.53;1673052;84;20998;-68
2022/09/02 00:43:49;;;;;;;16.17;7.30;;;;;;;6.66;92.58;99785.36;1682801;84;20963;-68
2022/09/02 00:46:18;;;;;;;14.35;7.00;;;;;;;6.67;92.59;99788.91;1681666;84;21042;-68
2022/09/02 00:49:08;;;;;;;15.70;7.03;;;;;;;6.65;92.55;99785.64;1680863;84;21051;-68
2022/09/02 00:51:43;;;;;;;14.73;7.03;;;;;;;6.63;92.61;99787.29;1676620;84;21117;-68
2022/09/02 00:54:10;;;;;;;14.78;6.58;;;;;;;6.59;92.75;99786.23;1698671;84;21043;-68
2022/09/02 00:56:37;;;;;;;16.97;6.50;;;;;;;6.57;93.15;99791.97;1693984;84;21115;-68
2022/09/02 00:59:04;;;;;;;18.10;5.90;;;;;;;6.56;93.28;99788.97;1688288;84;21574;-68
2022/09/02 01:01:31;;;;;;;17.73;7.10;;;;;;;6.55;93.26;99791.44;1680570;84;20873;-67
2022/09/02 01:03:57;;;;;;;16.12;6.55;;;;;;;6.54;93.25;99795.27;1698659;83;21033;-67
2022/09/02 01:06:26;;;;;;;14.47;6.10;;;;;;;6.53;93.39;99790.09;1685334;84;20972;-67
2022/09/02 01:08:58;;;;;;;16.57;6.72;;;;;;;6.52;93.40;99798.00;1683403;84;20921;-67
2022/09/02 01:11:31;;;;;;;16.07;7.00;;;;;;;6.49;93.32;99795.30;1692242;84;20988;-67
2022/09/02 01:13:58;;;;;;;18.90;6.83;;;;;;;6.48;93.46;99799.11;1681268;83;21142;-67
2022/09/02 01:16:39;;;;;;;20.17;6.58;;;;;;;6.47;93.57;99798.84;1672264;84;21906;-67
2022/09/02 01:19:13;;;;;;;13.58;6.53;;;;;;;6.42;93.64;99800.24;1690726;84;21153;-68
2022/09/02 01:21:47;;;;;;;12.07;5.80;;;;;;;6.39;93.84;99799.44;1680248;84;20897;-67
2022/09/02 01:24:14;;;;;;;12.07;5.85;;;;;;;6.37;94.00;99803.00;1689511;84;21016;-67
2022/09/02 01:26:41;;;;;;;15.18;6.08;;;;;;;6.33;94.05;99812.05;1684110;84;21469;-67
2022/09/02 01:29:07;;;;;;;14.83;6.42;;;;;;;6.31;94.10;99812.34;1685165;84;21236;-67
2022/09/02 01:31:35;;;;;;;13.28;5.67;;;;;;;6.27;94.25;99811.27;1685405;84;20909;-67
2022/09/02 01:34:02;;;;;;;11.97;5.75;;;;;;;6.27;94.62;99816.72;1689931;84;21043;-67
2022/09/02 01:36:29;;;;;;;16.20;6.37;;;;;;;6.25;94.70;99813.45;1686871;84;21051;-67
2022/09/02 01:38:55;;;;;;;17.57;5.90;;;;;;;6.24;94.87;99815.91;1678723;84;21019;-67
2022/09/02 01:41:22;;;;;;;10.43;5.80;;;;;;;6.23;95.11;99820.55;1682767;84;22057;-67
2022/09/02 01:43:49;;;;;;;11.93;5.60;;;;;;;6.25;95.52;99825.18;1676813;84;21464;-67
2022/09/02 01:46:15;;;;;;;15.43;5.85;;;;;;;6.26;95.60;99829.53;1695208;84;21535;-68
2022/09/02 01:48:42;;;;;;;13.18;5.83;;;;;;;6.28;95.56;99838.80;1696408;84;21039;-67
2022/09/02 01:51:09;;;;;;;10.58;5.28;;;;;;;6.26;95.32;99834.17;1685835;84;20940;-67
2022/09/02 01:53:36;;;;;;;16.20;6.03;;;;;;;6.24;95.32;99839.09;1632297;85;21315;-67
2022/09/02 01:56:05;;;;;;;11.88;5.55;;;;;;;6.23;95.43;99850.55;1685424;82;21569;-67
2022/09/02 01:58:33;;;;;;;11.60;5.37;;;;;;;6.22;95.49;99845.37;1686462;83;20949;-67
2022/09/02 02:00:59;;;;;;;10.48;5.12;;;;;;;6.21;95.54;99851.37;1689559;84;20919;-67
2022/09/02 02:03:26;;;;;;;12.65;5.20;;;;;;;6.21;95.57;99846.46;1678891;84;20988;-67
2022/09/02 02:05:54;;;;;;;11.00;4.92;;;;;;;6.20;95.61;99853.83;1687327;84;21261;-67
2022/09/02 02:08:23;;;;;;;11.38;4.92;;;;;;;6.19;95.52;99848.11;1692909;84;20945;-67
2022/09/02 02:10:50;;;;;;;11.93;5.50;;;;;;;6.18;95.64;99850.56;1685389;84;21645;-67
2022/09/02 02:13:18;;;;;;;9.55;5.03;;;;;;;6.16;95.68;99854.11;1688587;84;21551;-68
2022/09/02 02:15:44;;;;;;;13.08;5.30;;;;;;;6.16;95.69;99853.30;1684407;84;20953;-67
2022/09/02 02:18:12;;;;;;;11.63;5.50;;;;;;;6.14;95.61;99855.48;1673206;84;21146;-67
2022/09/02 02:20:39;;;;;;;9.00;4.90;;;;;;;6.12;95.84;99854.95;1688830;84;21025;-67
2022/09/02 02:23:06;;;;;;;10.45;6.03;;;;;;;6.12;96.16;99849.50;1683310;84;21005;-68
2022/09/02 02:25:34;;;;;;;12.18;5.80;;;;;;;6.11;96.24;99852.77;1689482;84;21063;-67
2022/09/02 02:28:02;;;;;;;9.30;4.87;;;;;;;6.10;96.29;99855.23;1668399;84;21200;-67
2022/09/02 02:30:30;;;;;;;14.78;5.65;;;;;;;6.09;96.42;99848.69;1674623;84;21139;-67
2022/09/02 02:32:57;;;;;;;12.55;4.87;;;;;;;6.06;96.37;99850.61;1688678;83;21051;-67
2022/09/02 02:35:27;;;;;;;13.35;5.65;;;;;;;6.04;96.25;99855.52;1681861;83;20987;-67
2022/09/02 02:37:56;;;;;;;12.35;4.80;;;;;;;5.99;96.12;99850.91;1697049;84;21047;-67
2022/09/02 02:40:25;;;;;;;11.97;5.90;;;;;;;5.95;96.12;99854.73;1673290;84;20959;-68
2022/09/02 02:42:52;;;;;;;12.93;5.58;;;;;;;5.93;96.27;99852.02;1669028;84;21104;-67
2022/09/02 02:45:21;;;;;;;13.08;5.35;;;;;;;5.91;96.33;99850.11;1697993;84;20849;-68
2022/09/02 02:47:48;;;;;;;10.90;5.65;;;;;;;5.90;96.48;99852.02;1689943;84;20989;-67
2022/09/02 02:50:17;;;;;;;12.03;5.30;;;;;;;5.88;96.59;99852.81;1693798;83;21024;-67
2022/09/02 02:52:44;;;;;;;11.00;5.28;;;;;;;5.87;96.58;99862.08;1685525;84;21049;-67
2022/09/02 02:55:13;;;;;;;18.45;5.60;;;;;;;5.85;96.46;99862.91;1688067;84;21209;-67
2022/09/02 02:57:41;;;;;;;14.83;5.17;;;;;;;5.83;96.44;99862.91;1690596;84;21505;-68
2022/09/02 03:00:24;;;;;;;16.77;5.40;;;;;;;5.79;96.60;99864.02;1651528;84;21050;-68
2022/09/02 03:03:01;;;;;;;13.90;4.78;;;;;;;5.76;96.56;99865.95;1678117;84;21141;-67
2022/09/02 03:05:28;;;;;;;15.65;5.58;;;;;;;5.73;96.81;99865.14;1711322;82;21032;-68
2022/09/02 03:07:55;;;;;;;15.32;6.03;;;;;;;5.70;96.81;99867.06;1685345;84;21101;-68
2022/09/02 03:10:23;;;;;;;14.45;5.78;;;;;;;5.67;96.89;99870.33;1685504;84;20913;-68
2022/09/02 03:12:51;;;;;;;8.35;5.28;;;;;;;5.66;97.24;99878.23;1673248;84;21078;-68
2022/09/02 03:15:19;;;;;;;13.20;5.87;;;;;;;5.67;97.49;99882.59;1693095;82;20951;-68
2022/09/02 03:17:47;;;;;;;10.48;5.30;;;;;;;5.68;98.03;99884.22;1699159;82;21617;-68
2022/09/02 03:20:15;;;;;;;11.60;4.97;;;;;;;5.73;98.50;99882.03;1694745;83;21259;-67
2022/09/02 03:22:46;;;;;;;16.20;4.78;;;;;;;5.76;98.36;99892.38;1704666;83;21490;-67
2022/09/02 03:25:19;;;;;;;16.95;5.70;;;;;;;5.76;98.05;99897.83;1729883;82;20928;-67
2022/09/02 03:27:48;;;;;;;12.03;5.47;;;;;;;5.73;97.79;99890.20;1715341;82;20979;-67
2022/09/02 03:30:20;;;;;;;10.28;5.60;;;;;;;5.67;97.46;99896.20;1701302;83;21019;-67
2022/09/02 03:32:47;;;;;;;15.30;5.67;;;;;;;5.62;97.51;99898.94;1712957;82;24699;-66
2022/09/02 03:35:17;;;;;;;9.10;4.80;;;;;;;5.61;97.56;99897.30;1735234;81;21556;-66
2022/09/02 03:37:44;;;;;;;16.48;5.72;;;;;;;5.58;97.65;99897.85;1717428;82;20886;-66
2022/09/02 03:40:16;;;;;;;12.63;5.17;;;;;;;5.56;97.61;99907.66;1717469;82;20958;-67
2022/09/02 03:42:45;;;;;;;20.08;5.65;;;;;;;5.50;97.48;99908.75;1727398;82;21004;-66
2022/09/02 03:45:14;;;;;;;11.55;5.50;;;;;;;5.49;97.76;99911.20;1732016;81;21197;-67
2022/09/02 03:47:49;;;;;;;14.28;5.83;;;;;;;5.50;97.85;99918.83;1724313;82;20926;-65
2022/09/02 03:50:12;;;;;;;10.40;5.78;;;;;;;5.51;98.10;99920.46;1712941;82;20915;-65
2022/09/02 03:52:39;;;;;;;11.33;5.70;;;;;;;5.54;98.24;99926.17;1714657;83;21658;-67
2022/09/02 03:55:08;;;;;;;12.45;5.42;;;;;;;5.58;98.36;99929.17;1712915;83;21511;-67
2022/09/02 03:57:36;;;;;;;14.28;5.95;;;;;;;5.62;98.45;99922.09;1712092;83;21775;-66
2022/09/02 04:00:06;;;;;;;18.30;6.10;;;;;;;5.67;98.63;99920.72;1713053;83;20904;-68
2022/09/02 04:02:35;;;;;;;11.65;5.75;;;;;;;5.73;98.80;99925.08;1716675;81;21561;-70
2022/09/02 04:05:03;;;;;;;16.60;5.72;;;;;;;5.81;99.20;99922.31;1696629;83;20897;-68
2022/09/02 04:07:29;;;;;;;17.70;6.17;;;;;;;5.90;99.61;99927.50;1713511;83;22307;-69
2022/09/02 04:09:57;;;;;;;19.02;6.00;;;;;;;5.99;100.00;99935.39;1708765;83;21566;-74
2022/09/02 04:12:24;;;;;;;23.77;6.10;;;;;;;6.11;100.00;99932.37;1713157;83;20944;-72
2022/09/02 04:14:51;;;;;;;19.12;6.10;;;;;;;6.21;100.00;99935.06;1711534;83;20900;-69
2022/09/02 04:17:20;;;;;;;22.58;6.70;;;;;;;6.32;100.00;99942.12;1704064;83;21636;-74
2022/09/02 04:19:47;;;;;;;21.23;7.28;;;;;;;6.43;100.00;99942.32;1707106;83;20971;-75
2022/09/02 04:22:14;;;;;;;26.42;7.47;;;;;;;6.55;100.00;99940.64;1712766;82;21087;-77
2022/09/02 04:24:41;;;;;;;23.50;7.05;;;;;;;6.68;100.00;99952.31;1712765;82;21454;-74
2022/09/02 04:27:08;;;;;;;21.70;7.55;;;;;;;6.81;100.00;99950.89;1714119;83;20935;-71
2022/09/02 04:29:36;;;;;;;22.22;7.97;;;;;;;6.93;100.00;99949.42;1752598;80;21708;-70
2022/09/02 04:32:03;;;;;;;34.45;8.50;;;;;;;7.08;100.00;99947.16;1717105;82;20974;-79
2022/09/02 04:34:29;;;;;;;22.00;7.83;;;;;;;7.23;100.00;99957.98;1748996;80;21113;-77
2022/09/02 04:36:56;;;;;;;25.88;8.10;;;;;;;7.38;100.00;99948.05;1727481;82;21583;-78
2022/09/02 04:39:23;;;;;;;20.30;7.80;;;;;;;7.51;100.00;99952.28;1708678;83;21041;-71
2022/09/02 04:41:52;;;;;;;23.52;8.43;;;;;;;7.68;100.00;99951.88;1714150;83;21427;-71
2022/09/02 04:44:19;;;;;;;17.40;7.95;;;;;;;7.83;100.00;99953.11;1718963;83;20907;-71
2022/09/02 04:46:47;;;;;;;14.13;7.80;;;;;;;8.00;100.00;99951.86;1711368;82;21732;-70
2022/09/02 04:49:15;;;;;;;26.02;8.50;;;;;;;8.17;100.00;99952.20;1715158;83;21521;-71
2022/09/02 04:51:44;;;;;;;19.80;8.23;;;;;;;8.34;100.00;99955.33;1714374;83;20868;-83
2022/09/02 04:54:11;;;;;;;18.55;8.28;;;;;;;8.52;100.00;99952.38;1714323;83;20946;-82
2022/09/02 04:56:39;;;;;;;18.87;7.45;;;;;;;8.71;100.00;99957.88;1711166;83;21007;-86
2022/09/02 04:59:07;;;;;;;25.75;8.13;;;;;;;8.88;100.00;99954.09;1711175;83;21814;-84
2022/09/02 05:01:35;;;;;;;19.25;7.22;;;;;;;9.06;100.00;99953.29;1712292;83;20957;-72
2022/09/02 05:04:06;;;;;;;16.42;7.12;;;;;;;9.24;99.37;99958.52;1673479;84;20922;-79
2022/09/02 05:06:34;;;;;;;16.87;7.55;;;;;;;9.41;98.38;99954.66;1669963;83;21081;-76
2022/09/02 05:09:02;;;;;;;21.85;8.43;;;;;;;9.58;97.22;99956.86;1638289;86;20931;-76
2022/09/02 05:11:32;;;;;;;22.48;8.53;;;;;;;9.74;96.40;99956.87;1639744;86;21265;-73
2022/09/02 05:14:03;;;;;;;21.57;8.23;;;;;;;9.90;96.05;99958.20;1659050;85;21073;-75
2022/09/02 05:16:35;;;;;;;15.30;7.00;;;;;;;10.07;94.90;99963.67;1637807;86;21051;-77
2022/09/02 05:19:05;;;;;;;20.40;9.33;;;;;;;10.21;93.47;99964.55;1664782;85;20988;-77
2022/09/02 05:21:34;;;;;;;25.62;9.58;;;;;;;10.34;92.19;99962.37;1679799;84;21429;-74
2022/09/02 05:24:01;;;;;;;23.80;9.80;;;;;;;10.44;91.80;99959.96;1677431;84;21119;-72
2022/09/02 05:26:32;;;;;;;32.38;13.08;;;;;;;10.58;91.58;99958.84;1684951;84;21415;-72
2022/09/02 05:28:59;;;;;;;57.23;24.27;;;;;;;10.73;91.62;99959.66;1686673;84;20998;-74
2022/09/02 05:31:27;;;;;;;68.28;29.07;;;;;;;10.88;91.59;99957.95;1683870;84;20994;-73
2022/09/02 05:33:54;;;;;;;104.75;49.58;;;;;;;11.05;91.55;99958.10;1684309;85;20974;-75
2022/09/02 05:36:22;;;;;;;119.40;54.33;;;;;;;11.25;90.87;99960.95;1682181;84;21130;-76
2022/09/02 05:38:50;;;;;;;95.22;45.17;;;;;;;11.44;88.91;99953.92;1692305;82;20979;-73
2022/09/02 05:41:25;;;;;;;78.62;37.15;;;;;;;11.62;87.46;99958.40;1685772;84;20947;-76
2022/09/02 05:43:52;;;;;;;62.85;28.07;;;;;;;11.79;86.38;99961.30;1687558;84;20972;-74
2022/09/02 05:46:22;;;;;;;44.95;21.07;;;;;;;11.95;84.52;99954.85;1689948;84;20892;-77
2022/09/02 05:49:16;;;;;;;41.83;18.55;;;;;;;12.10;83.08;99961.33;1688415;82;21228;-76
2022/09/02 05:51:48;;;;;;;39.50;18.73;;;;;;;12.25;82.04;99960.09;1682324;83;21481;-79
2022/09/02 05:54:20;;;;;;;46.98;20.48;;;;;;;12.40;80.67;99962.42;1682069;84;20992;-70
2022/09/02 05:56:51;;;;;;;46.73;24.23;;;;;;;12.54;79.85;99964.50;1678085;85;20940;-71
2022/09/02 05:59:20;;;;;;;65.35;26.77;;;;;;;12.67;79.12;99964.71;1682825;84;20951;-70
2022/09/02 06:01:47;;;;;;;68.05;30.20;;;;;;;12.79;78.44;99971.20;1701814;84;21130;-71
2022/09/02 06:04:14;;;;;;;67.12;33.38;;;;;;;12.90;78.06;99979.42;1685770;84;21478;-77
2022/09/02 06:06:42;;;;;;;67.87;29.70;;;;;;;13.04;76.85;99982.61;1693316;83;21017;-77
2022/09/02 06:09:10;;;;;;;70.97;29.92;;;;;;;13.14;76.50;99984.50;1684457;84;21062;-74
2022/09/02 06:11:42;;;;;;;76.70;33.33;;;;;;;13.28;76.73;99983.58;1688671;84;21066;-73
2022/09/02 06:14:08;;;;;;;71.65;33.48;;;;;;;13.43;76.44;99977.55;1659765;84;21250;-73
2022/09/02 06:16:38;;;;;;;87.82;39.53;;;;;;;13.58;75.37;99975.69;1687640;83;20983;-77
2022/09/02 06:19:06;;;;;;;104.65;44.98;;;;;;;13.74;75.26;99979.58;1698246;82;21051;-71
2022/09/02 06:21:36;;;;;;;92.30;44.73;;;;;;;13.90;73.50;99978.47;1704694;81;20987;-76
2022/09/02 06:24:07;;;;;;;87.57;42.33;;;;;;;14.01;72.99;99974.23;1714641;82;20872;-76
2022/09/02 06:26:36;;;;;;;98.67;47.23;;;;;;;14.15;72.25;99971.28;1714927;83;21162;-76
2022/09/02 06:29:05;;;;;;;100.12;48.68;;;;;;;14.28;71.33;99977.17;1716955;83;37531;-76
2022/09/02 06:31:32;;;;;;;113.85;58.30;;;;;;;14.41;70.96;99977.56;1711161;83;20896;-76
2022/09/02 06:33:59;;;;;;;106.45;54.38;;;;;;;14.56;70.18;99984.47;1716263;83;21030;-82
2022/09/02 06:36:27;;;;;;;92.67;49.80;;;;;;;14.69;68.73;99988.15;1718716;83;20903;-72
2022/09/02 06:38:56;;;;;;;90.65;38.10;;;;;;;14.79;68.56;99990.55;1715691;83;21416;-73
2022/09/02 06:41:27;;;;;;;72.10;36.00;;;;;;;14.91;66.35;99993.98;1717425;81;21086;-72
2022/09/02 06:43:56;;;;;;;64.58;32.90;;;;;;;14.95;66.17;99995.74;1664991;84;21043;-72
2022/09/02 06:46:31;;;;;;;56.05;27.22;;;;;;;15.05;65.80;99997.28;1715480;82;20943;-72
2022/09/02 06:48:59;;;;;;;60.00;26.60;;;;;;;15.18;64.88;99998.42;1714945;83;20983;-74
2022/09/02 06:51:33;;;;;;;56.63;27.22;;;;;;;15.31;63.84;99996.55;1705278;82;21104;-70
2022/09/02 06:54:00;;;;;;;59.38;32.03;;;;;;;15.43;63.68;99995.23;1682584;85;20968;-72
2022/09/02 06:56:29;;;;;;;59.05;29.70;;;;;;;15.60;63.68;99998.45;1682855;84;21020;-73
2022/09/02 06:58:56;;;;;;;50.90;26.48;;;;;;;15.76;62.93;100008.33;1686971;84;20982;-70
2022/09/02 07:01:28;;;;;;;50.65;26.05;;;;;;;15.90;60.96;100002.51;1693329;83;20994;-69
2022/09/02 07:06:49;;;;;;;62.62;28.73;;;;;;;16.14;61.07;100002.59;1725449;81;21600;-71
2022/09/02 07:09:21;;;;;;;50.48;25.55;;;;;;;16.33;60.46;100000.66;1709161;81;20896;-71
2022/09/02 07:11:49;;;;;;;;;;;;;;;16.48;59.38;100008.31;1722693;82;20880;-69
2022/09/02 07:14:18;;;;;;;51.83;24.02;;;;;;;16.62;57.84;100006.02;1727319;81;20098;-78
2022/09/02 07:16:50;;;;;;;59.08;27.25;;;;;;;16.75;57.49;99999.94;1708890;82;21144;-76
2022/09/02 07:19:19;;;;;;;53.90;27.27;;;;;;;16.92;57.43;100005.81;1732193;82;20950;-74
2022/09/02 07:21:48;;;;;;;55.03;28.23;;;;;;;17.08;55.56;100003.95;1722386;81;20990;-76
2022/09/02 07:24:15;;;;;;;31.68;17.35;;;;;;;17.13;55.35;99997.59;1700131;82;20919;-71
2022/09/02 07:26:42;;;;;;;36.77;16.60;;;;;;;17.22;53.90;100003.59;1688218;83;21629;-76
2022/09/02 07:29:09;;;;;;;39.65;18.42;;;;;;;17.28;53.25;99999.43;1689479;83;21195;-75
2022/09/02 07:31:38;;;;;;;28.52;14.63;;;;;;;17.39;53.52;99994.41;1693000;83;20947;-76
2022/09/02 07:34:06;;;;;;;29.63;13.32;;;;;;;17.55;53.73;99998.65;1680639;84;21007;-75
2022/09/02 07:36:33;;;;;;;22.00;10.35;;;;;;;17.74;53.21;99996.08;1680678;84;20956;-74
2022/09/02 07:39:05;;;;;;;23.52;10.85;;;;;;;17.95;53.08;99987.52;1690603;83;20900;-73
2022/09/02 07:41:32;;;;;;;27.27;10.93;;;;;;;18.13;51.08;99991.59;1694178;83;21144;-73
2022/09/02 07:43:59;;;;;;;25.68;11.50;;;;;;;18.23;51.61;99993.05;1696281;84;21018;-73
2022/09/02 07:46:30;;;;;;;23.83;12.30;;;;;;;18.37;50.97;99993.44;1707427;84;21665;-74
2022/09/02 07:48:58;;;;;;;26.62;12.82;;;;;;;18.60;49.99;99990.84;1701158;84;20966;-73
2022/09/02 07:51:25;;;;;;;23.95;13.35;;;;;;;18.88;47.35;99987.16;1691947;83;21309;-81
2022/09/02 07:53:52;;;;;;;29.72;14.45;;;;;;;19.12;45.89;99991.90;1686670;83;21776;-75
2022/09/02 07:56:20;;;;;;;32.17;16.70;;;;;;;19.37;45.60;99987.48;1704546;82;20947;-75
2022/09/02 07:58:47;;;;;;;24.43;14.60;;;;;;;19.72;44.25;99988.26;1687456;84;20939;-72
2022/09/02 08:01:14;;;;;;;29.72;15.03;;;;;;;20.12;44.02;99988.46;1685964;84;20915;-72
2022/09/02 08:03:43;;;;;;;27.80;15.38;;;;;;;20.47;42.48;99991.70;1685925;84;21025;-75
2022/09/02 08:06:11;;;;;;;36.70;19.98;;;;;;;20.86;41.52;99985.36;1665038;84;21823;-73
2022/09/02 08:08:40;;;;;;;44.40;22.70;;;;;;;21.26;40.44;99982.03;1682829;84;21533;-73
2022/09/02 08:11:07;;;;;;;48.48;26.10;;;;;;;21.61;39.95;99983.08;1687036;84;20962;-72
2022/09/02 08:13:38;;;;;;;55.75;31.68;;;;;;;21.83;38.98;99984.16;1689943;84;20911;-73
2022/09/02 08:16:05;;;;;;;53.48;31.10;;;;;;;21.98;38.67;99976.92;1681637;84;21312;-73
2022/09/02 08:18:32;;;;;;;46.20;25.57;;;;;;;22.11;37.54;99980.30;1678881;84;21334;-72
2022/09/02 08:20:59;;;;;;;40.43;25.00;;;;;;;22.16;35.18;99976.36;1684030;85;21542;-72
2022/09/02 08:23:25;;;;;;;48.78;28.25;;;;;;;22.13;36.63;99963.95;1688293;84;21019;-72
2022/09/02 08:25:52;;;;;;;46.40;28.60;;;;;;;22.23;36.93;99973.63;1676719;84;20989;-72
2022/09/02 08:28:19;;;;;;;48.20;28.42;;;;;;;22.45;35.30;99966.27;1686261;84;21582;-73
2022/09/02 08:30:45;;;;;;;44.30;27.20;;;;;;;22.56;34.77;99967.13;1681793;84;21144;-73
2022/09/02 08:33:12;;;;;;;43.65;24.85;;;;;;;22.67;34.67;99966.63;1685800;84;21431;-93
2022/09/02 08:35:39;;;;;;;39.53;21.02;;;;;;;22.77;34.53;99967.91;1689002;84;21478;-74
2022/09/02 08:38:07;;;;;;;33.70;19.75;;;;;;;22.95;33.84;99972.49;1687319;84;20955;-73
2022/09/02 08:40:39;;;;;;;38.13;21.80;;;;;;;23.05;33.67;99975.16;1683932;84;21034;-72
2022/09/02 08:43:33;;;;;;;37.53;20.40;;;;;;;23.10;33.37;99978.20;1668307;84;21155;-71
2022/09/02 08:46:03;;;;;;;37.35;20.43;;;;;;;23.28;32.67;99965.88;1686558;84;20972;-69
2022/09/02 08:48:44;;;;;;;39.88;20.43;;;;;;;23.41;31.96;99967.76;1689537;84;21047;-70
2022/09/02 08:51:31;;;;;;;30.87;18.57;;;;;;;23.35;31.32;99964.53;1690272;84;20876;-69
2022/09/02 08:54:12;;;;;;;18.62;11.97;;;;;;;23.19;32.82;99965.43;1682757;85;21039;-69
2022/09/02 08:56:42;;;;;;;17.52;9.80;;;;;;;23.45;32.98;99967.19;1687490;84;21253;-69
2022/09/02 08:59:09;;;;;;;11.48;7.75;;;;;;;23.87;32.68;99965.77;1684546;84;20935;-71
2022/09/02 09:01:59;;;;;;;14.75;8.93;;;;;;;24.31;31.63;99975.31;1685080;84;20975;-72
2022/09/02 09:05:10;;;;;;;13.25;7.83;;;;;;;24.59;30.57;99970.34;1679037;84;21015;-73
2022/09/02 09:07:59;;;;;;;21.17;12.43;;;;;;;24.66;30.57;99968.94;1685099;84;21543;-72
2022/09/02 09:10:46;;;;;;;20.20;12.23;;;;;;;24.41;30.56;99975.93;1684314;83;21265;-73
2022/09/02 09:13:49;;;;;;;14.13;7.92;;;;;;;24.04;30.09;99968.63;1683757;84;20935;-72
2022/09/02 09:16:31;;;;;;;14.65;6.90;;;;;;;23.94;29.63;99977.02;1684788;84;20908;-72
2022/09/02 09:19:14;;;;;;;10.00;5.80;;;;;;;24.06;30.20;99963.23;1684023;84;20951;-74
2022/09/02 09:21:42;;;;;;;11.20;4.83;;;;;;;24.42;30.31;99962.10;1682033;84;20905;-70
2022/09/02 09:24:35;;;;;;;9.78;4.35;;;;;;;24.59;29.92;99954.91;1682133;84;21122;-69
2022/09/02 09:27:06;;;;;;;9.65;4.28;;;;;;;24.66;29.09;99961.32;1683539;84;20959;-71
2022/09/02 09:29:35;;;;;;;6.17;3.40;;;;;;;24.64;29.73;99960.11;1688086;83;21571;-69
2022/09/02 09:32:03;;;;;;;6.67;3.15;;;;;;;25.01;29.14;99953.48;1684963;83;21036;-68
2022/09/02 09:34:55;;;;;;;5.75;3.33;;;;;;;25.28;28.36;99948.82;1680512;83;21108;-75
2022/09/02 09:37:40;;;;;;;5.33;2.70;;;;;;;25.45;28.35;99952.16;1667109;85;21100;-73
2022/09/02 09:40:27;;;;;;;4.65;2.17;;;;;;;25.79;28.41;99948.23;1664236;86;20955;-72
2022/09/02 09:43:10;;;;;;;2.10;1.80;;;;;;;25.95;26.11;99947.77;1663617;86;20958;-73
2022/09/02 09:45:44;;;;;;;;;;;;;;;25.74;26.94;99946.45;1692260;83;21069;-70
2022/09/02 09:48:22;;;;;;;4.10;1.77;;;;;;;25.63;27.02;99950.08;1681812;83;20425;-70
2022/09/02 09:51:00;;;;;;;5.60;1.65;;;;;;;25.31;27.97;99955.83;1677333;84;21202;-71
2022/09/02 09:53:34;;;;;;;2.55;1.20;;;;;;;25.34;27.78;99946.59;1687636;83;20969;-71
2022/09/02 09:56:08;;;;;;;4.70;1.42;;;;;;;25.60;28.31;99957.13;1683460;83;21622;-75
2022/09/02 09:58:44;;;;;;;3.12;1.45;;;;;;;25.83;27.37;99948.22;1685163;83;21548;-76
2022/09/02 10:01:31;;;;;;;1.90;0.80;;;;;;;25.59;26.60;99947.09;1681392;83;21565;-72
2022/09/02 10:04:06;;;;;;;1.40;1.02;;;;;;;25.31;28.21;99946.61;1686246;83;21155;-69
2022/09/02 10:06:38;;;;;;;4.53;2.20;;;;;;;25.37;27.90;99950.60;1690533;83;21099;-71
2022/09/02 10:09:20;;;;;;;6.92;3.05;;;;;;;25.53;27.99;99939.68;1695477;83;21520;-74
2022/09/02 10:12:00;;;;;;;4.53;2.22;;;;;;;25.81;27.07;99936.58;1699079;83;21022;-74
2022/09/02 10:14:38;;;;;;;7.35;2.60;;;;;;;25.99;25.94;99937.30;1684579;83;21081;-73
2022/09/02 10:17:39;;;;;;;8.13;5.37;;;;;;;25.96;27.90;99931.88;1692767;83;21143;-71
2022/09/02 10:20:34;;;;;;;9.40;5.03;;;;;;;26.14;26.78;99936.57;1688901;83;21068;-73
2022/09/02 10:23:15;;;;;;;10.15;4.90;;;;;;;26.21;27.20;99934.52;1685538;83;21530;-68
2022/09/02 10:26:13;;;;;;;10.40;4.10;;;;;;;26.30;26.10;99941.89;1690741;83;21002;-70
2022/09/02 10:29:24;;;;;;;8.00;4.35;;;;;;;26.11;25.86;99944.43;1688097;83;21016;-71
2022/09/02 10:32:16;;;;;;;9.78;5.03;;;;;;;25.47;25.98;99934.88;1689483;83;21192;-72
2022/09/02 10:34:57;;;;;;;9.10;6.05;;;;;;;25.36;27.35;99940.57;1687895;83;21045;-73
2022/09/02 10:37:24;;;;;;;20.60;5.50;;;;;;;25.72;27.05;99939.03;1684778;83;20977;-70
2022/09/02 10:40:15;;;;;;;8.13;4.97;;;;;;;26.04;26.87;99941.66;1685163;83;21144;-69
2022/09/02 10:43:05;;;;;;;8.43;4.75;;;;;;;26.17;25.16;99942.78;1686380;83;21013;-69
2022/09/02 10:45:39;;;;;;;9.13;5.20;;;;;;;25.95;25.74;99950.58;1688412;83;21666;-69
2022/09/02 10:48:26;;;;;;;12.47;5.97;;;;;;;25.50;25.88;99948.92;1683501;84;21711;-70
2022/09/02 10:51:03;;;;;;;11.48;5.92;;;;;;;25.26;25.81;99954.05;1681580;83;20923;-70
2022/09/02 10:53:52;;;;;;;9.45;5.85;;;;;;;25.18;26.35;99956.67;1699421;82;21073;-74
2022/09/02 10:56:25;;;;;;;12.35;6.58;;;;;;;25.29;25.16;99949.82;1709075;82;21034;-72
2022/09/02 10:59:02;;;;;;;13.05;6.80;;;;;;;25.42;25.90;99950.79;1732601;82;21268;-72
2022/09/02 11:01:55;;;;;;;12.43;7.65;;;;;;;25.63;26.18;99952.89;1681016;83;21113;-72
2022/09/02 11:04:44;;;;;;;20.02;8.30;;;;;;;25.87;25.59;99952.63;1686371;83;21009;-70
2022/09/02 11:07:18;;;;;;;14.73;8.60;;;;;;;25.99;26.56;99948.55;1686889;83;20998;-71
2022/09/02 11:10:06;;;;;;;23.20;8.70;;;;;;;26.10;26.14;99952.67;1683201;83;21030;-71
2022/09/02 11:12:37;;;;;;;18.45;9.05;;;;;;;25.77;26.73;99953.47;1691990;83;21253;-70
2022/09/02 11:15:24;;;;;;;14.13;8.40;;;;;;;25.21;26.72;99962.28;1680818;83;20925;-70
2022/09/02 11:17:56;;;;;;;14.45;7.80;;;;;;;24.66;27.45;99960.52;1651190;85;21323;-70
2022/09/02 11:20:49;;;;;;;16.75;8.53;;;;;;;24.41;27.57;99960.50;1635129;86;21047;-71
2022/09/02 11:23:42;;;;;;;13.72;9.05;;;;;;;24.54;27.35;99956.09;1685786;83;21062;-75
2022/09/02 11:26:24;;;;;;;18.05;9.20;;;;;;;24.59;27.42;99957.70;1686786;83;21150;-75
2022/09/02 11:29:00;;;;;;;;;;;;;;;24.45;27.74;99956.30;1692966;83;21128;-72
2022/09/02 11:31:49;;;;;;;17.27;7.97;;;;;;;24.61;27.21;99953.90;1684856;83;20174;-73
2022/09/02 11:34:34;;;;;;;13.43;8.30;;;;;;;24.58;26.77;99950.49;1685188;83;21703;-72
2022/09/02 11:37:04;;;;;;;14.65;7.97;;;;;;;24.60;26.75;99946.69;1684958;83;20990;-72
2022/09/02 11:39:48;;;;;;;12.33;8.38;;;;;;;24.84;26.73;99943.67;1683398;83;21134;-73
2022/09/02 11:42:23;;;;;;;13.10;8.03;;;;;;;25.06;26.47;99941.64;1689459;83;20997;-73
2022/09/02 11:45:21;;;;;;;9.03;6.08;;;;;;;24.93;26.26;99946.23;1686944;83;21006;-72
2022/09/02 11:48:29;;;;;;;11.73;5.78;;;;;;;24.67;26.76;99946.08;1681315;83;21718;-73
2022/09/02 11:51:13;;;;;;;14.70;6.30;;;;;;;24.69;26.47;99946.48;1691173;83;21024;-73
2022/09/02 11:53:41;;;;;;;11.60;6.17;;;;;;;24.94;26.96;99938.61;1684347;83;21088;-73